Time;durP1;ratioP1;P1;durP2;ratioP2;P2;SDS_P1;SDS_P2;PMS_P1;PMS_P2;Temp;Humidity;BMP_temperature;BMP_pressure;BME280_temperature;BME280_humidity;BME280_pressure;Samples;Min_cycle;Max_cycle;Signal;HPM_P1;HPM_P2
2022/09/22 00:01:12;;;;;;;6.20;3.27;;;;;;;7.65;nan;98818.59;5056975;28;20221;-69
2022/09/22 00:03:43;;;;;;;5.43;3.20;;;;;;;7.54;nan;98808.44;5057096;28;20189;-69
2022/09/22 00:06:15;;;;;;;5.90;3.30;;;;;;;7.46;nan;98811.22;5057214;28;20212;-70
2022/09/22 00:08:45;;;;;;;7.60;3.40;;;;;;;7.51;nan;98801.69;5056901;28;20217;-69
2022/09/22 00:11:27;;;;;;;6.67;3.23;;;;;;;7.52;nan;98803.34;5056796;28;20232;-69
2022/09/22 00:13:59;;;;;;;5.13;3.60;;;;;;;7.53;nan;98796.22;5056798;28;20208;-69
2022/09/22 00:16:29;;;;;;;4.80;3.30;;;;;;;7.51;nan;98800.91;5056507;28;20668;-70
2022/09/22 00:18:56;;;;;;;7.50;3.30;;;;;;;7.47;nan;98803.06;5056762;28;20193;-69
2022/09/22 00:21:26;;;;;;;4.67;3.17;;;;;;;7.49;nan;98802.88;5056290;28;20719;-69
2022/09/22 00:23:53;;;;;;;3.83;2.87;;;;;;;7.48;nan;98802.09;5056632;28;20275;-69
2022/09/22 00:26:21;;;;;;;4.47;3.30;;;;;;;7.48;nan;98795.97;5056852;28;20209;-69
2022/09/22 00:28:50;;;;;;;5.50;3.20;;;;;;;7.49;nan;98794.94;5056460;28;20217;-70
2022/09/22 00:31:25;;;;;;;9.87;3.30;;;;;;;7.50;nan;98799.22;5056300;28;20229;-69
2022/09/22 00:33:53;;;;;;;4.67;3.20;;;;;;;7.50;nan;98791.28;5056186;28;20580;-69
2022/09/22 00:36:22;;;;;;;4.27;3.07;;;;;;;7.45;nan;98786.56;5056718;28;20209;-70
2022/09/22 00:38:50;;;;;;;5.93;3.43;;;;;;;7.50;nan;98789.47;5056367;28;20292;-70
2022/09/22 00:41:23;;;;;;;6.73;3.87;;;;;;;7.45;nan;98783.09;5056251;28;20252;-70
2022/09/22 00:44:11;;;;;;;7.10;3.83;;;;;;;7.47;nan;98781.09;5055998;28;20224;-69
2022/09/22 00:46:41;;;;;;;4.57;3.67;;;;;;;7.33;nan;98771.31;5055945;28;20209;-70
2022/09/22 00:49:08;;;;;;;7.30;3.70;;;;;;;7.34;nan;98776.41;5056547;28;20564;-70
2022/09/22 00:51:38;;;;;;;6.80;3.90;;;;;;;7.20;nan;98771.13;5056121;28;20202;-69
2022/09/22 00:54:08;;;;;;;5.20;3.87;;;;;;;7.23;nan;98762.81;5056017;28;20205;-70
2022/09/22 00:56:42;;;;;;;7.20;3.53;;;;;;;7.30;nan;98776.97;5056077;28;20283;-70
2022/09/22 00:59:14;;;;;;;7.27;3.53;;;;;;;7.26;nan;98768.59;5055022;28;20204;-69
2022/09/22 01:01:40;;;;;;;7.50;3.83;;;;;;;7.21;nan;98770.13;5055099;28;20190;-69
2022/09/22 01:04:08;;;;;;;7.70;3.67;;;;;;;7.15;nan;98768.19;5056319;28;20292;-70
2022/09/22 01:06:38;;;;;;;4.90;3.60;;;;;;;7.16;nan;98769.84;5055764;28;20227;-70
2022/09/22 01:09:05;;;;;;;7.07;4.17;;;;;;;7.12;nan;98771.19;5055649;28;20216;-70
2022/09/22 01:11:33;;;;;;;4.33;3.93;;;;;;;7.09;nan;98775.03;5055628;28;20229;-69
2022/09/22 01:14:46;;;;;;;6.00;3.70;;;;;;;7.09;nan;98775.03;5055661;28;20201;-69
2022/09/22 01:17:31;;;;;;;4.73;3.97;;;;;;;7.10;nan;98789.06;5050767;28;20205;-70
2022/09/22 01:20:11;;;;;;;5.63;3.77;;;;;;;7.00;nan;98781.38;5055875;28;20243;-70
2022/09/22 01:23:05;;;;;;;4.63;3.50;;;;;;;6.99;nan;98790.31;5055206;28;20220;-70
2022/09/22 01:26:01;;;;;;;5.43;3.20;;;;;;;6.96;nan;98784.53;5054560;28;20625;-70
2022/09/22 01:28:46;;;;;;;4.13;3.10;;;;;;;6.83;nan;98787.00;5054369;28;20226;-70
2022/09/22 01:31:34;;;;;;;4.67;3.43;;;;;;;6.90;nan;98777.34;5054963;28;20237;-70
2022/09/22 01:34:22;;;;;;;5.77;3.37;;;;;;;6.79;nan;98786.50;5039227;28;20588;-70
2022/09/22 01:37:03;;;;;;;4.57;3.00;;;;;;;6.80;nan;98780.25;5053931;28;20190;-70
2022/09/22 01:39:54;;;;;;;4.10;3.33;;;;;;;6.67;nan;98773.91;5054138;28;20225;-70
2022/09/22 01:42:54;;;;;;;3.60;2.97;;;;;;;6.74;nan;98777.50;5055460;28;20201;-71
2022/09/22 01:45:28;;;;;;;4.50;3.27;;;;;;;6.74;nan;98770.38;5051165;28;20209;-70
2022/09/22 01:48:01;;;;;;;5.70;3.07;;;;;;;6.80;nan;98764.38;5055537;28;20219;-70
2022/09/22 01:50:40;;;;;;;6.87;3.10;;;;;;;6.73;nan;98767.88;5055006;28;20225;-70
2022/09/22 01:53:11;;;;;;;3.77;3.10;;;;;;;6.60;nan;98772.97;5055386;28;20196;-70
2022/09/22 01:55:41;;;;;;;3.87;2.87;;;;;;;6.58;nan;98774.94;5053765;28;20189;-70
2022/09/22 01:58:16;;;;;;;3.30;3.00;;;;;;;6.65;nan;98781.19;5054914;28;20590;-70
2022/09/22 02:00:50;;;;;;;4.00;2.60;;;;;;;6.69;nan;98771.91;5054799;28;20270;-70
2022/09/22 02:03:26;;;;;;;5.20;2.93;;;;;;;6.62;nan;98770.97;5054765;28;20186;-70
2022/09/22 02:06:01;;;;;;;4.03;2.90;;;;;;;6.59;nan;98773.94;5054762;28;20193;-70
2022/09/22 02:08:38;;;;;;;5.07;3.00;;;;;;;6.45;nan;98778.19;5055379;28;20255;-70
2022/09/22 02:11:12;;;;;;;4.30;2.90;;;;;;;6.42;nan;98770.59;5054560;28;20251;-70
2022/09/22 02:13:39;;;;;;;2.87;2.57;;;;;;;6.36;nan;98766.03;5053952;28;20192;-70
2022/09/22 02:16:07;;;;;;;4.20;2.67;;;;;;;6.34;nan;98770.66;5054497;28;20205;-70
2022/09/22 02:18:53;;;;;;;4.33;3.10;;;;;;;6.36;nan;98767.84;5054650;28;20206;-70
2022/09/22 02:21:21;;;;;;;3.03;2.27;;;;;;;6.39;nan;98767.50;5055133;28;20236;-70
2022/09/22 02:23:49;;;;;;;4.17;2.70;;;;;;;6.52;nan;98768.53;5054403;28;20555;-69
2022/09/22 02:26:22;;;;;;;3.17;2.87;;;;;;;6.45;nan;98761.50;5054327;28;20224;-70
2022/09/22 02:28:58;;;;;;;4.40;2.43;;;;;;;6.36;nan;98759.91;5053045;28;20259;-70
2022/09/22 02:31:28;;;;;;;5.57;3.17;;;;;;;6.25;nan;98755.06;5053142;28;20232;-70
2022/09/22 02:33:55;;;;;;;3.37;3.00;;;;;;;6.30;nan;98755.34;5054166;28;20201;-70
2022/09/22 02:36:25;;;;;;;6.20;3.27;;;;;;;6.25;nan;98753.22;5054039;28;20213;-70
2022/09/22 02:39:01;;;;;;;4.53;2.70;;;;;;;6.21;nan;98751.94;5054070;28;20202;-70
2022/09/22 02:41:39;;;;;;;2.93;2.53;;;;;;;6.18;nan;98749.66;5052848;28;20225;-70
2022/09/22 02:44:11;;;;;;;2.70;2.50;;;;;;;6.30;nan;98750.06;5052866;28;20194;-70
2022/09/22 02:46:46;;;;;;;3.87;3.23;;;;;;;6.19;nan;98747.84;5054482;28;20190;-70
2022/09/22 02:49:17;;;;;;;3.77;2.83;;;;;;;6.31;nan;98749.06;5053100;28;20218;-70
2022/09/22 02:51:45;;;;;;;4.17;2.90;;;;;;;6.02;nan;98754.19;5053885;28;20193;-70
2022/09/22 02:54:13;;;;;;;4.97;2.70;;;;;;;5.99;nan;98759.81;5053799;28;20209;-70
2022/09/22 02:56:40;;;;;;;3.60;2.60;;;;;;;6.03;nan;98754.03;5053638;28;20232;-70
2022/09/22 02:59:08;;;;;;;3.60;2.70;;;;;;;6.12;nan;98757.44;5053799;28;20205;-70
2022/09/22 03:01:35;;;;;;;3.23;2.60;;;;;;;6.07;nan;98755.31;5053362;28;20694;-70
2022/09/22 03:04:02;;;;;;;3.33;2.50;;;;;;;6.12;nan;98752.16;5053226;28;20695;-70
2022/09/22 03:06:28;;;;;;;3.40;2.30;;;;;;;6.15;nan;98749.97;5053192;28;20688;-70
2022/09/22 03:08:54;;;;;;;2.67;2.47;;;;;;;5.98;nan;98748.41;5053477;28;20229;-70
2022/09/22 03:11:21;;;;;;;2.80;2.30;;;;;;;5.87;nan;98748.00;5053421;28;20323;-70
2022/09/22 03:13:47;;;;;;;2.73;2.20;;;;;;;5.84;nan;98743.88;5053481;28;20205;-70
2022/09/22 03:16:13;;;;;;;4.73;2.33;;;;;;;5.73;nan;98746.88;5053487;28;20216;-70
2022/09/22 03:18:40;;;;;;;3.83;2.40;;;;;;;5.79;nan;98748.03;5053482;28;20280;-70
2022/09/22 03:21:06;;;;;;;3.10;2.03;;;;;;;5.70;nan;98746.41;5053501;28;20221;-70
2022/09/22 03:23:33;;;;;;;4.27;2.63;;;;;;;5.73;nan;98746.03;5052904;28;20205;-70
2022/09/22 03:25:59;;;;;;;3.37;2.70;;;;;;;5.92;nan;98745.69;5053219;28;20208;-70
2022/09/22 03:28:25;;;;;;;4.23;2.63;;;;;;;5.96;nan;98739.88;5053693;28;20225;-70
2022/09/22 03:30:52;;;;;;;5.70;3.13;;;;;;;5.96;nan;98742.50;5052685;28;20232;-70
2022/09/22 03:33:18;;;;;;;3.60;2.90;;;;;;;6.06;nan;98742.31;5053103;28;20207;-70
2022/09/22 03:35:44;;;;;;;4.37;3.13;;;;;;;5.84;nan;98748.34;5053060;28;20224;-70
2022/09/22 03:38:11;;;;;;;3.47;2.90;;;;;;;5.71;nan;98737.50;5053199;28;20201;-69
2022/09/22 03:40:37;;;;;;;4.13;3.17;;;;;;;5.75;nan;98731.69;5053099;28;20224;-70
2022/09/22 03:43:04;;;;;;;4.40;2.97;;;;;;;5.86;nan;98738.44;5052766;28;20220;-70
2022/09/22 03:45:30;;;;;;;5.90;2.90;;;;;;;5.71;nan;98737.50;5053072;28;20201;-70
2022/09/22 03:47:57;;;;;;;4.00;2.90;;;;;;;5.77;nan;98737.63;5053065;28;20231;-70
2022/09/22 03:50:24;;;;;;;3.83;3.00;;;;;;;5.78;nan;98725.25;5052659;28;20275;-70
2022/09/22 03:52:50;;;;;;;3.17;2.87;;;;;;;5.70;nan;98735.84;5053061;28;20201;-70
2022/09/22 03:55:17;;;;;;;3.60;2.80;;;;;;;5.66;nan;98730.06;5053051;28;20205;-70
2022/09/22 03:57:43;;;;;;;3.20;2.80;;;;;;;5.77;nan;98735.00;5053039;28;20205;-69
2022/09/22 04:00:10;;;;;;;3.30;3.00;;;;;;;5.60;nan;98728.13;5053288;28;20232;-70
2022/09/22 04:02:36;;;;;;;4.97;2.97;;;;;;;5.67;nan;98733.56;5052468;28;20209;-70
2022/09/22 04:05:03;;;;;;;3.60;2.80;;;;;;;5.69;nan;98729.75;5052619;28;20215;-70
2022/09/22 04:07:29;;;;;;;4.33;2.93;;;;;;;5.71;nan;98726.94;5052785;28;20201;-70
2022/09/22 04:09:56;;;;;;;3.33;2.77;;;;;;;5.81;nan;98727.56;5052797;28;20239;-70
2022/09/22 04:12:22;;;;;;;3.97;2.40;;;;;;;5.79;nan;98729.56;5052518;28;20209;-70
2022/09/22 04:14:49;;;;;;;3.10;2.60;;;;;;;5.68;nan;98722.00;5051596;28;20209;-70
2022/09/22 04:17:15;;;;;;;2.80;2.60;;;;;;;5.68;nan;98725.47;5053023;28;20212;-70
2022/09/22 04:19:41;;;;;;;3.40;2.73;;;;;;;5.72;nan;98728.56;5052693;28;20217;-70
2022/09/22 04:22:08;;;;;;;4.63;2.40;;;;;;;5.73;nan;98719.66;5052547;28;20209;-70
2022/09/22 04:24:34;;;;;;;2.40;2.20;;;;;;;5.65;nan;98730.28;5052606;28;20213;-70
2022/09/22 04:27:00;;;;;;;3.90;2.70;;;;;;;5.73;nan;98732.84;5052778;28;20216;-70
2022/09/22 04:29:27;;;;;;;3.67;2.87;;;;;;;5.74;nan;98723.97;5052397;28;20232;-69
2022/09/22 04:31:53;;;;;;;3.83;2.80;;;;;;;5.71;nan;98729.56;5052623;28;20190;-70
2022/09/22 04:34:19;;;;;;;2.93;2.63;;;;;;;5.68;nan;98735.19;5053044;28;20220;-70
2022/09/22 04:36:46;;;;;;;3.63;2.60;;;;;;;5.68;nan;98729.91;5055316;28;20205;-69
2022/09/22 04:39:12;;;;;;;5.10;3.00;;;;;;;5.59;nan;98733.56;5056091;28;20227;-70
2022/09/22 04:41:39;;;;;;;4.97;3.13;;;;;;;5.61;nan;98736.88;5056595;28;20207;-70
2022/09/22 04:44:05;;;;;;;3.50;2.67;;;;;;;5.58;nan;98740.69;5055961;28;20228;-70
2022/09/22 04:46:31;;;;;;;3.97;2.63;;;;;;;5.50;nan;98726.69;5055782;28;20216;-70
2022/09/22 04:48:58;;;;;;;2.97;2.47;;;;;;;5.59;nan;98731.78;5055604;28;20712;-69
2022/09/22 04:51:24;;;;;;;2.70;2.50;;;;;;;5.54;nan;98728.81;5055854;28;20229;-70
2022/09/22 04:53:50;;;;;;;4.57;2.77;;;;;;;5.60;nan;98727.31;5055833;28;20202;-70
2022/09/22 04:56:17;;;;;;;3.77;2.60;;;;;;;5.62;nan;98728.81;5055841;28;20201;-70
2022/09/22 04:58:43;;;;;;;4.30;3.30;;;;;;;5.62;nan;98722.69;5055632;28;20197;-70
2022/09/22 05:01:10;;;;;;;4.07;2.60;;;;;;;5.72;nan;98728.56;5055571;28;20225;-70
2022/09/22 05:03:37;;;;;;;4.33;3.03;;;;;;;5.67;nan;98725.63;5055026;28;20729;-70
2022/09/22 05:06:05;;;;;;;5.00;3.27;;;;;;;5.68;nan;98733.38;5055200;28;20638;-69
2022/09/22 05:08:32;;;;;;;3.73;3.23;;;;;;;5.67;nan;98731.75;5055063;28;20255;-70
2022/09/22 05:10:58;;;;;;;5.50;3.40;;;;;;;5.52;nan;98730.81;5055121;28;20229;-70
2022/09/22 05:13:25;;;;;;;3.00;2.80;;;;;;;5.63;nan;98732.25;5054997;28;20205;-70
2022/09/22 05:15:51;;;;;;;4.60;3.53;;;;;;;5.71;nan;98732.22;5055403;28;20205;-70
2022/09/22 05:18:18;;;;;;;7.27;3.70;;;;;;;5.76;nan;98736.00;5055255;28;20209;-70
2022/09/22 05:20:44;;;;;;;3.67;3.07;;;;;;;5.63;nan;98741.00;5055148;28;20235;-70
2022/09/22 05:23:11;;;;;;;4.47;3.40;;;;;;;5.63;nan;98740.16;5054981;28;20240;-69
2022/09/22 05:25:38;;;;;;;3.83;3.33;;;;;;;5.61;nan;98740.31;5054592;28;20212;-70
2022/09/22 05:28:04;;;;;;;6.33;3.70;;;;;;;5.65;nan;98738.19;5054512;28;20216;-70
2022/09/22 05:30:30;;;;;;;4.93;3.63;;;;;;;5.68;nan;98748.38;5054547;28;20247;-70
2022/09/22 05:32:57;;;;;;;3.70;3.30;;;;;;;5.76;nan;98754.47;5054568;28;20217;-70
2022/09/22 05:35:25;;;;;;;4.77;3.80;;;;;;;5.75;nan;98752.78;5054463;28;20216;-70
2022/09/22 05:37:53;;;;;;;5.10;3.40;;;;;;;5.83;nan;98754.63;5054587;28;20212;-70
2022/09/22 05:40:22;;;;;;;4.30;3.43;;;;;;;5.86;nan;98749.00;5054118;28;20224;-70
2022/09/22 05:42:50;;;;;;;6.23;3.83;;;;;;;5.88;nan;98754.94;5054674;28;20612;-70
2022/09/22 05:45:18;;;;;;;7.00;4.00;;;;;;;5.95;nan;98753.22;5054391;28;20255;-70
2022/09/22 05:47:45;;;;;;;7.37;3.90;;;;;;;6.07;nan;98759.78;5054451;28;20209;-70
2022/09/22 05:50:13;;;;;;;6.20;3.73;;;;;;;6.15;nan;98755.25;5054323;28;20228;-70
2022/09/22 05:52:39;;;;;;;4.83;3.80;;;;;;;6.22;nan;98748.31;5054762;28;20201;-70
2022/09/22 05:55:07;;;;;;;4.30;3.83;;;;;;;6.30;nan;98750.06;5054415;28;20209;-70
2022/09/22 05:57:34;;;;;;;6.00;3.80;;;;;;;6.34;nan;98754.00;5054447;28;20212;-70
2022/09/22 06:00:01;;;;;;;6.40;3.90;;;;;;;6.38;nan;98755.31;5054145;28;20221;-70
2022/09/22 06:02:27;;;;;;;5.97;3.80;;;;;;;6.35;nan;98753.84;5054177;28;20208;-70
2022/09/22 06:04:54;;;;;;;6.37;4.20;;;;;;;6.49;nan;98747.78;5054473;28;20205;-70
2022/09/22 06:07:22;;;;;;;6.87;3.80;;;;;;;6.59;nan;98755.47;5055123;28;20208;-70
2022/09/22 06:09:49;;;;;;;7.07;4.57;;;;;;;6.62;nan;98752.47;5054355;28;20244;-70
2022/09/22 06:12:17;;;;;;;5.20;4.33;;;;;;;6.67;nan;98764.16;5054312;28;20216;-70
2022/09/22 06:14:44;;;;;;;7.63;4.23;;;;;;;6.70;nan;98763.78;5053946;28;20206;-70
2022/09/22 06:17:11;;;;;;;5.57;4.50;;;;;;;6.72;nan;98759.16;5053606;28;20209;-70
2022/09/22 06:19:38;;;;;;;6.97;4.27;;;;;;;6.75;nan;98761.44;5053902;28;20275;-70
2022/09/22 06:22:05;;;;;;;5.97;4.50;;;;;;;6.84;nan;98755.06;5054096;28;20211;-70
2022/09/22 06:24:31;;;;;;;7.80;5.27;;;;;;;6.94;nan;98760.97;5053777;28;20216;-70
2022/09/22 06:26:58;;;;;;;7.60;4.57;;;;;;;6.97;nan;98757.94;5053672;28;20296;-70
2022/09/22 06:29:25;;;;;;;8.47;4.47;;;;;;;7.05;nan;98757.88;5053065;28;20235;-70
2022/09/22 06:31:52;;;;;;;9.57;4.77;;;;;;;7.10;nan;98754.69;5053956;28;20633;-70
2022/09/22 06:34:18;;;;;;;8.80;4.63;;;;;;;7.16;nan;98757.44;5053750;28;20205;-70
2022/09/22 06:36:45;;;;;;;8.10;4.53;;;;;;;7.27;nan;98753.53;5053765;28;20209;-70
2022/09/22 06:39:13;;;;;;;6.70;4.60;;;;;;;7.33;nan;98756.25;5053541;28;20255;-70
2022/09/22 06:41:39;;;;;;;6.60;4.70;;;;;;;7.41;nan;98752.69;5053158;28;20213;-70
2022/09/22 06:44:06;;;;;;;9.50;4.53;;;;;;;7.50;nan;98751.59;5053285;28;20209;-70
2022/09/22 06:46:34;;;;;;;6.07;4.97;;;;;;;7.54;nan;98755.53;5053271;28;20292;-70
2022/09/22 06:49:01;;;;;;;7.17;5.07;;;;;;;7.65;nan;98749.81;5053206;28;20227;-70
2022/09/22 06:51:32;;;;;;;8.10;4.80;;;;;;;7.70;nan;98742.94;5052911;28;20229;-70
2022/09/22 06:54:00;;;;;;;10.30;5.40;;;;;;;7.79;nan;98741.03;5053113;28;20269;-70
2022/09/22 06:56:28;;;;;;;7.90;5.13;;;;;;;7.79;nan;98747.13;5053376;28;20296;-70
2022/09/22 06:58:55;;;;;;;9.53;5.50;;;;;;;7.85;nan;98750.88;5052844;28;20212;-70
2022/09/22 07:01:23;;;;;;;7.47;4.90;;;;;;;7.86;nan;98741.91;5053449;28;20229;-70
2022/09/22 07:03:51;;;;;;;7.43;4.93;;;;;;;7.87;nan;98746.22;5053398;28;20205;-70
2022/09/22 07:06:17;;;;;;;8.83;5.20;;;;;;;7.95;nan;98746.09;5053135;28;20201;-70
2022/09/22 07:08:48;;;;;;;7.07;5.17;;;;;;;8.04;nan;98744.97;5053297;28;20578;-71
2022/09/22 07:11:18;;;;;;;9.73;5.67;;;;;;;8.07;nan;98745.44;5053147;28;20599;-71
2022/09/22 07:13:45;;;;;;;9.47;5.13;;;;;;;8.22;nan;98735.66;5052946;28;20296;-71
2022/09/22 07:16:14;;;;;;;9.20;5.33;;;;;;;8.22;nan;98748.06;5053254;28;20209;-71
2022/09/22 07:18:44;;;;;;;7.07;4.80;;;;;;;8.34;nan;98741.28;5053736;28;20216;-71
2022/09/22 07:21:12;;;;;;;6.50;5.10;;;;;;;8.40;nan;98748.47;5052952;28;20232;-71
2022/09/22 07:23:39;;;;;;;7.37;4.70;;;;;;;8.44;nan;98747.09;5053212;28;20205;-71
2022/09/22 07:26:08;;;;;;;8.23;5.43;;;;;;;8.41;nan;98743.00;5053178;28;20232;-71
2022/09/22 07:28:35;;;;;;;8.20;5.30;;;;;;;8.56;nan;98740.28;5051797;28;20205;-71
2022/09/22 07:31:05;;;;;;;6.23;4.90;;;;;;;8.65;nan;98736.50;5052825;28;20229;-71
2022/09/22 07:33:36;;;;;;;7.20;4.67;;;;;;;8.78;nan;98744.56;5052802;28;20239;-71
2022/09/22 07:36:09;;;;;;;6.20;4.90;;;;;;;8.85;nan;98746.28;5053054;28;20193;-71
2022/09/22 07:38:36;;;;;;;7.60;4.97;;;;;;;8.99;nan;98742.72;5052888;28;20189;-71
2022/09/22 07:41:05;;;;;;;9.43;4.67;;;;;;;9.11;nan;98740.34;5052648;28;20590;-71
2022/09/22 07:43:32;;;;;;;7.30;5.33;;;;;;;9.22;nan;98747.75;5053068;28;20251;-71
2022/09/22 07:45:58;;;;;;;6.47;4.93;;;;;;;9.41;nan;98741.78;5052911;28;20208;-71
2022/09/22 07:48:41;;;;;;;9.63;5.70;;;;;;;9.44;nan;98750.19;5052637;28;20216;-71
2022/09/22 07:51:20;;;;;;;9.80;5.37;;;;;;;9.44;nan;98754.66;5053035;28;20561;-71
2022/09/22 07:54:03;;;;;;;8.07;5.30;;;;;;;9.58;nan;98741.28;5053052;28;20192;-71
2022/09/22 07:56:29;;;;;;;6.27;4.90;;;;;;;9.61;nan;98746.19;5053133;28;20255;-71
2022/09/22 07:58:56;;;;;;;8.17;5.43;;;;;;;9.78;nan;98747.50;5052889;28;20275;-71
2022/09/22 08:01:25;;;;;;;10.90;5.30;;;;;;;9.76;nan;98748.72;5052924;28;20225;-71
2022/09/22 08:03:51;;;;;;;7.93;5.13;;;;;;;9.80;nan;98749.97;5053783;28;20205;-71
2022/09/22 08:06:19;;;;;;;5.87;4.40;;;;;;;9.94;nan;98749.00;5052919;28;20202;-71
2022/09/22 08:08:51;;;;;;;5.47;3.60;;;;;;;10.14;nan;98747.28;5052976;28;20205;-71
2022/09/22 08:11:19;;;;;;;6.77;3.90;;;;;;;10.23;nan;98738.13;5056364;28;20227;-71
2022/09/22 08:13:58;;;;;;;6.03;3.77;;;;;;;10.13;nan;98727.84;5056685;28;20236;-71
2022/09/22 08:16:26;;;;;;;4.83;4.20;;;;;;;10.06;nan;98731.50;5056329;28;20700;-71
2022/09/22 08:18:55;;;;;;;6.17;3.90;;;;;;;10.08;nan;98732.13;5056635;28;20248;-71
2022/09/22 08:21:34;;;;;;;5.57;4.23;;;;;;;10.19;nan;98732.34;5056541;28;20253;-71
2022/09/22 08:24:03;;;;;;;5.17;3.97;;;;;;;10.42;nan;98727.50;5056648;28;20196;-71
2022/09/22 08:26:29;;;;;;;7.33;4.27;;;;;;;10.45;nan;98736.94;5056566;28;20572;-71
2022/09/22 08:28:57;;;;;;;4.70;4.10;;;;;;;10.70;nan;98736.16;5056195;28;20209;-71
2022/09/22 08:31:26;;;;;;;5.00;3.90;;;;;;;10.64;nan;98728.97;5056377;28;20237;-70
2022/09/22 08:33:54;;;;;;;7.47;4.63;;;;;;;10.70;nan;98724.69;5056018;28;20205;-71
2022/09/22 08:36:22;;;;;;;6.17;4.40;;;;;;;11.14;nan;98722.25;5055808;28;20688;-71
2022/09/22 08:38:49;;;;;;;6.27;4.43;;;;;;;11.05;nan;98729.59;5056254;28;20202;-71
2022/09/22 08:41:16;;;;;;;6.27;4.10;;;;;;;10.90;nan;98723.69;5056159;28;20224;-71
2022/09/22 08:43:54;;;;;;;6.03;4.37;;;;;;;11.00;nan;98723.28;5056188;28;20263;-71
2022/09/22 08:46:47;;;;;;;6.03;4.50;;;;;;;11.36;nan;98721.00;5056307;28;20629;-71
2022/09/22 08:52:30;;;;;;;5.37;4.00;;;;;;;11.38;nan;98718.94;5054812;28;20177;-71
2022/09/22 08:54:58;;;;;;;5.97;3.80;;;;;;;11.61;nan;98711.34;5056085;28;20194;-71
2022/09/22 08:57:50;;;;;;;5.23;3.60;;;;;;;11.87;nan;98719.25;5055400;28;20224;-71
2022/09/22 09:00:18;;;;;;;6.10;3.90;;;;;;;11.78;nan;98720.50;5056191;28;20329;-71
2022/09/22 09:03:08;;;;;;;6.10;3.60;;;;;;;12.14;nan;98723.44;5055662;28;20209;-71
2022/09/22 09:06:00;;;;;;;4.30;2.70;;;;;;;12.12;nan;98727.34;5055508;28;20263;-71
2022/09/22 09:08:39;;;;;;;3.63;3.20;;;;;;;12.44;nan;98716.47;5055941;28;20201;-71
2022/09/22 09:11:15;;;;;;;4.23;3.20;;;;;;;12.52;nan;98726.91;5055518;28;20260;-71
2022/09/22 09:14:20;;;;;;;3.07;2.77;;;;;;;12.80;nan;98727.31;5056196;28;20540;-71
2022/09/22 09:16:51;;;;;;;3.20;2.83;;;;;;;12.68;nan;98723.72;5055558;28;20234;-71
2022/09/22 09:19:25;;;;;;;6.17;2.90;;;;;;;12.80;nan;98729.97;5055316;28;20196;-71
2022/09/22 09:21:54;;;;;;;4.50;2.87;;;;;;;12.95;nan;98724.34;5055378;28;20194;-71
2022/09/22 09:24:35;;;;;;;4.87;2.80;;;;;;;12.92;nan;98720.25;5055211;28;20203;-72
2022/09/22 09:27:08;;;;;;;3.60;2.43;;;;;;;13.01;nan;98716.31;5054420;28;20196;-71
2022/09/22 09:29:49;;;;;;;3.63;2.70;;;;;;;13.03;nan;98711.56;5054722;28;20714;-71
2022/09/22 09:32:27;;;;;;;3.97;3.00;;;;;;;12.96;nan;98708.09;5055269;28;20200;-71
2022/09/22 09:34:53;;;;;;;3.00;2.60;;;;;;;13.29;nan;98702.50;5055489;28;20224;-71
2022/09/22 09:37:20;;;;;;;3.23;2.33;;;;;;;13.36;nan;98713.94;5055225;28;20211;-71
2022/09/22 09:39:47;;;;;;;5.10;2.60;;;;;;;13.58;nan;98702.63;5053538;28;20778;-71
2022/09/22 09:42:29;;;;;;;3.53;2.43;;;;;;;13.44;nan;98702.97;5054618;28;20294;-71
2022/09/22 09:45:01;;;;;;;4.67;3.07;;;;;;;13.62;nan;98706.44;5055198;28;20203;-71
2022/09/22 09:47:46;;;;;;;3.97;2.83;;;;;;;13.88;nan;98702.69;5055053;28;20193;-71
2022/09/22 09:50:14;;;;;;;2.97;2.53;;;;;;;13.88;nan;98700.00;5054913;28;20229;-71
2022/09/22 09:52:41;;;;;;;3.83;2.13;;;;;;;14.05;nan;98701.00;5054551;28;20206;-71
2022/09/22 09:55:28;;;;;;;2.40;2.13;;;;;;;14.25;nan;98706.97;5054801;28;20212;-71
2022/09/22 10:00:29;;;;;;;3.43;2.43;;;;;;;14.34;nan;98700.25;5054193;28;20777;-71
2022/09/22 10:00:59;;;;;;;3.37;2.07;;;;;;;14.51;nan;98707.41;5054210;28;20225;-71
2022/09/22 10:03:32;;;;;;;4.13;1.83;;;;;;;14.41;nan;98696.44;5054367;28;20189;-71
2022/09/22 10:06:10;;;;;;;2.83;2.07;;;;;;;13.98;nan;98689.59;5053311;28;20691;-71
2022/09/22 10:08:50;;;;;;;2.70;2.00;;;;;;;14.35;nan;98697.38;5054577;28;20197;-72
2022/09/22 10:11:30;;;;;;;2.30;1.77;;;;;;;14.21;nan;98690.56;5054247;28;20699;-71
2022/09/22 10:13:58;;;;;;;3.87;2.17;;;;;;;14.64;nan;98699.19;5054569;28;20200;-71
2022/09/22 10:16:34;;;;;;;1.93;1.83;;;;;;;14.58;nan;98685.91;5054587;28;20209;-71
2022/09/22 10:19:20;;;;;;;3.63;1.63;;;;;;;14.91;nan;98692.38;5054296;28;20212;-71
2022/09/22 10:21:47;;;;;;;1.73;1.63;;;;;;;14.43;nan;98683.66;5054090;28;20192;-71
2022/09/22 10:24:30;;;;;;;1.70;1.60;;;;;;;14.92;nan;98679.81;5053594;28;20612;-71
2022/09/22 10:26:56;;;;;;;2.83;1.90;;;;;;;14.83;nan;98673.16;5053934;28;20243;-72
2022/09/22 10:29:24;;;;;;;1.47;1.37;;;;;;;14.87;nan;98680.50;5053703;28;20220;-72
2022/09/22 10:32:16;;;;;;;2.87;1.30;;;;;;;15.06;nan;98673.19;5053919;28;20190;-72
2022/09/22 10:34:44;;;;;;;3.03;1.43;;;;;;;14.92;nan;98679.81;5050484;28;20233;-72
2022/09/22 10:37:17;;;;;;;1.60;1.30;;;;;;;14.87;nan;98667.09;5054011;28;20259;-72
2022/09/22 10:39:47;;;;;;;2.50;1.50;;;;;;;14.91;nan;98665.59;5053693;28;20221;-72
2022/09/22 10:42:40;;;;;;;1.10;1.00;;;;;;;15.41;nan;98658.75;5053690;28;20287;-72
2022/09/22 10:45:11;;;;;;;1.10;1.00;;;;;;;15.93;nan;98657.69;5053900;28;20575;-71
2022/09/22 10:47:39;;;;;;;1.67;0.70;;;;;;;16.21;nan;98656.91;5053773;28;20189;-71
2022/09/22 10:50:23;;;;;;;2.07;1.10;;;;;;;15.94;nan;98651.31;5053510;28;20241;-72
2022/09/22 10:53:16;;;;;;;0.77;0.73;;;;;;;16.20;nan;98656.06;5053802;28;20189;-72
2022/09/22 10:55:55;;;;;;;2.97;1.20;;;;;;;16.23;nan;98652.91;5043833;28;20665;-71
2022/09/22 10:58:25;;;;;;;0.87;0.87;;;;;;;16.30;nan;98644.72;5052738;28;20523;-72
2022/09/22 11:01:00;;;;;;;0.80;0.80;;;;;;;16.10;nan;98653.22;5053171;28;20723;-72
2022/09/22 11:03:50;;;;;;;0.90;0.90;;;;;;;16.25;nan;98661.56;5052331;28;20189;-72
2022/09/22 11:12:20;;;;;;;2.80;0.90;;;;;;;15.98;nan;98652.47;5053338;28;20189;-71
2022/09/22 11:15:08;;;;;;;0.77;0.70;;;;;;;16.03;nan;98646.34;5051666;28;20637;-72
2022/09/22 11:18:12;;;;;;;0.97;0.87;;;;;;;16.22;nan;98650.47;5052178;28;20193;-72
2022/09/22 11:21:06;;;;;;;1.63;1.10;;;;;;;16.21;nan;98648.84;5053542;28;20534;-72
2022/09/22 11:23:37;;;;;;;0.80;0.77;;;;;;;16.24;nan;98646.50;5053595;28;20665;-71
2022/09/22 11:26:34;;;;;;;1.10;0.90;;;;;;;16.18;nan;98644.78;5052648;28;20193;-72
2022/09/22 11:29:05;;;;;;;1.03;0.93;;;;;;;16.34;nan;98632.47;5053823;28;20251;-72
2022/09/22 11:31:37;;;;;;;2.83;1.10;;;;;;;16.02;nan;98626.75;5052937;28;20791;-72
2022/09/22 11:34:36;;;;;;;0.90;0.87;;;;;;;16.12;nan;98626.16;5052955;28;20224;-72
2022/09/22 11:40:32;;;;;;;1.10;1.00;;;;;;;16.10;nan;98623.69;5050997;28;20237;-72
2022/09/22 11:43:08;;;;;;;2.00;0.90;;;;;;;16.36;nan;98617.75;5053347;28;20196;-72
2022/09/22 11:45:48;;;;;;;0.83;0.83;;;;;;;16.33;nan;98617.41;5055676;28;20219;-72
2022/09/22 11:48:38;;;;;;;1.33;0.80;;;;;;;16.31;nan;98619.50;5057103;28;20211;-71
2022/09/22 11:51:11;;;;;;;1.63;1.10;;;;;;;16.33;nan;98615.53;5056523;28;20235;-72
2022/09/22 11:53:37;;;;;;;1.03;0.80;;;;;;;16.36;nan;98611.53;5056942;28;20209;-71
2022/09/22 11:56:22;;;;;;;3.17;1.03;;;;;;;16.52;nan;98606.22;5056896;28;20209;-72
2022/09/22 11:58:52;;;;;;;1.57;0.80;;;;;;;16.45;nan;98600.22;5055546;28;20253;-72
2022/09/22 12:01:22;;;;;;;3.03;0.90;;;;;;;16.40;nan;98602.81;5056697;28;20240;-72
2022/09/22 12:04:00;;;;;;;1.80;0.70;;;;;;;16.43;nan;98594.28;5055779;28;20196;-71
2022/09/22 12:06:31;;;;;;;0.70;0.70;;;;;;;16.55;nan;98599.59;5056600;28;20189;-72
2022/09/22 12:09:06;;;;;;;1.67;1.10;;;;;;;16.41;nan;98593.72;5056464;28;20195;-72
2022/09/22 12:11:36;;;;;;;1.40;0.83;;;;;;;16.62;nan;98587.63;5056743;28;20209;-72
2022/09/22 12:14:04;;;;;;;1.70;0.90;;;;;;;16.54;nan;98589.88;5056420;28;20193;-71
2022/09/22 12:16:40;;;;;;;1.10;1.00;;;;;;;16.61;nan;98595.91;5056532;28;20212;-72
2022/09/22 12:19:06;;;;;;;1.53;1.10;;;;;;;16.45;nan;98589.47;5056505;28;20221;-72
2022/09/22 12:22:06;;;;;;;1.63;1.03;;;;;;;16.43;nan;98585.41;5056395;28;20661;-72
2022/09/22 12:24:33;;;;;;;1.77;0.97;;;;;;;16.71;nan;98580.78;5055231;28;20190;-72
2022/09/22 12:27:11;;;;;;;1.17;0.93;;;;;;;16.67;nan;98579.66;5055147;28;20635;-72
2022/09/22 12:29:37;;;;;;;0.97;0.90;;;;;;;16.65;nan;98573.69;5056301;28;20248;-72
2022/09/22 12:32:05;;;;;;;1.57;0.83;;;;;;;16.71;nan;98572.72;5056065;28;20220;-71